Stove Pipe Wells, California
Current Conditions -  °F | °C
As of 3:56 PM on Saturday 22 Nov 2014 (Local Time) from KNID Reporting Station
Clear Clear  
Wind Chill: 18°   Ceiling: Unl
Heat Index: 18°   Visibility: 10mi
Dew Point:   Wind: 3mph
Humidity: 34%   Direction: 270°W
Pressure: 29.87"   Gusts: NA
Location:  36.3785°N, 117.161°W
Report Text: KNID 222356Z AUTO 27003KT 10SM CLR 18/02 A2987 RMK AO2 SLP114 T01830022 10194 20117 55018 $
Loading
Personal Weather Stations






























Interactive Weather Map New forecast layout! Learn more

10-Day Weather Forecast

Advertisements
Track Severe Weather on mobile